createdAt,value
2023-04-06T00:00:17.002Z,80.39
2023-04-06T00:05:10.668Z,80.34
2023-04-06T00:10:05.191Z,80.35
2023-04-06T00:14:59.934Z,80.13
2023-04-06T00:19:56.900Z,80.34
2023-04-06T00:24:50.510Z,80.46
2023-04-06T00:29:43.804Z,80.70
2023-04-06T00:34:38.505Z,81.41
2023-04-06T00:39:32.697Z,81.31
2023-04-06T00:44:26.755Z,81.36
2023-04-06T00:49:20.819Z,81.56
2023-04-06T00:54:15.723Z,81.63
2023-04-06T00:59:10.307Z,81.73
2023-04-06T01:04:04.761Z,81.62
2023-04-06T01:09:05.491Z,82.01
2023-04-06T01:14:00.509Z,82.25
2023-04-06T01:19:15.124Z,82.12
2023-04-06T01:24:14.850Z,82.19
2023-04-06T01:29:28.404Z,81.68
2023-04-06T01:34:22.847Z,81.53
2023-04-06T01:39:18.880Z,81.43
2023-04-06T01:44:12.946Z,81.16
2023-04-06T01:49:08.309Z,81.57
2023-04-06T01:54:04.568Z,81.17
2023-04-06T01:59:25.814Z,81.70
2023-04-06T02:04:20.643Z,80.72
2023-04-06T02:09:20.188Z,81.03
2023-04-06T02:14:13.883Z,80.83
2023-04-06T02:19:15.079Z,81.20
2023-04-06T02:24:10.587Z,80.99
2023-04-06T02:29:04.261Z,80.97
2023-04-06T02:33:59.890Z,81.36
2023-04-06T02:38:56.488Z,81.78
2023-04-06T02:43:50.207Z,81.10
2023-04-06T02:48:54.131Z,80.83
2023-04-06T02:53:48.330Z,81.00
2023-04-06T02:58:44.220Z,80.98
2023-04-06T03:03:37.979Z,80.50
2023-04-06T03:08:36.771Z,80.55
2023-04-06T03:13:30.170Z,80.78
2023-04-06T03:18:27.456Z,80.69
2023-04-06T03:23:23.057Z,80.48
2023-04-06T03:28:21.182Z,80.40
2023-04-06T03:33:21.503Z,79.64
2023-04-06T03:38:21.907Z,80.98
2023-04-06T03:43:24.617Z,80.79
2023-04-06T03:48:18.268Z,80.70
2023-04-06T03:53:11.634Z,80.80
2023-04-06T03:58:06.494Z,81.55
2023-04-06T04:03:00.101Z,81.56
2023-04-06T04:07:53.630Z,81.46
2023-04-06T04:12:50.418Z,81.53
2023-04-06T04:17:48.039Z,81.42
2023-04-06T04:22:41.564Z,81.69
2023-04-06T04:27:35.530Z,82.13
2023-04-06T04:32:28.951Z,82.04
2023-04-06T04:37:26.624Z,81.90
2023-04-06T04:42:23.114Z,82.06
2023-04-06T04:47:19.637Z,82.14
2023-04-06T04:52:14.666Z,82.15
2023-04-06T04:57:23.938Z,82.19
2023-04-06T05:02:17.506Z,82.16
2023-04-06T05:07:26.468Z,82.49
2023-04-06T05:12:24.356Z,82.53
2023-04-06T05:17:28.497Z,82.16
2023-04-06T05:22:24.901Z,82.49
2023-04-06T05:27:29.806Z,81.49
2023-04-06T05:32:25.875Z,81.80
2023-04-06T05:37:20.618Z,81.80
2023-04-06T05:42:14.212Z,81.01
2023-04-06T05:47:20.272Z,80.82
2023-04-06T05:52:22.227Z,80.99
2023-04-06T05:57:17.565Z,79.47
2023-04-06T06:02:12.113Z,79.01
2023-04-06T06:07:10.859Z,78.32
2023-04-06T06:12:13.220Z,78.33
2023-04-06T06:17:08.295Z,77.84
2023-04-06T06:22:03.639Z,78.27
2023-04-06T06:26:59.656Z,78.21
2023-04-06T06:31:55.580Z,78.03
2023-04-06T06:36:52.721Z,77.96
2023-04-06T06:41:46.957Z,78.72
2023-04-06T06:46:42.056Z,77.06
2023-04-06T06:51:35.494Z,76.73
2023-04-06T06:56:29.068Z,77.19
2023-04-06T07:01:22.969Z,77.58
2023-04-06T07:06:25.326Z,76.19
2023-04-06T07:11:18.901Z,76.71
2023-04-06T07:16:12.427Z,75.83
2023-04-06T07:21:09.434Z,75.26
2023-04-06T07:26:08.795Z,74.58
2023-04-06T07:31:17.008Z,73.48
2023-04-06T07:36:11.220Z,72.88
2023-04-06T07:41:06.282Z,73.73
2023-04-06T07:46:01.139Z,72.57
2023-04-06T07:50:54.707Z,72.12
2023-04-06T07:55:48.651Z,71.38
2023-04-06T08:00:43.564Z,70.32
2023-04-06T08:05:36.898Z,70.02
2023-04-06T08:10:30.472Z,70.32
2023-04-06T08:15:23.756Z,69.35
2023-04-06T08:20:18.747Z,69.01
2023-04-06T08:25:12.223Z,68.04
2023-04-06T08:30:05.984Z,70.61
2023-04-06T08:34:59.639Z,69.66
2023-04-06T08:39:54.457Z,67.99
2023-04-06T08:44:48.683Z,68.41
2023-04-06T08:49:42.602Z,67.74
2023-04-06T08:54:35.949Z,67.17
2023-04-06T08:59:31.431Z,63.76
2023-04-06T09:04:26.857Z,61.12
2023-04-06T09:09:22.844Z,57.43
2023-04-06T09:14:18.879Z,57.52
2023-04-06T09:19:14.373Z,56.97
2023-04-06T09:24:09.754Z,59.52
2023-04-06T09:29:06.333Z,58.88
2023-04-06T09:34:00.050Z,59.47
2023-04-06T09:38:59.620Z,61.87
2023-04-06T09:43:53.987Z,61.69
2023-04-06T09:48:47.755Z,61.83
2023-04-06T09:53:44.878Z,61.71
2023-04-06T09:58:45.730Z,63.17
2023-04-06T10:03:48.136Z,62.18
2023-04-06T10:08:43.438Z,61.51
2023-04-06T10:13:37.037Z,60.35
2023-04-06T10:18:32.068Z,60.60
2023-04-06T10:23:29.603Z,61.71
2023-04-06T10:28:23.053Z,58.18
2023-04-06T10:33:17.259Z,53.03
2023-04-06T10:38:12.803Z,52.36
2023-04-06T10:43:13.883Z,55.64
2023-04-06T10:48:17.208Z,49.70
2023-04-06T10:53:11.965Z,50.33
2023-04-06T10:58:08.619Z,49.24
2023-04-06T11:03:02.949Z,50.39
2023-04-06T11:07:59.079Z,50.88
2023-04-06T11:12:57.488Z,51.70
2023-04-06T11:17:51.557Z,52.39
2023-04-06T11:22:54.489Z,52.89
2023-04-06T11:27:48.576Z,54.53
2023-04-06T11:32:44.627Z,52.60
2023-04-06T11:37:38.297Z,53.82
2023-04-06T11:42:32.875Z,55.04
2023-04-06T11:47:31.321Z,54.28
2023-04-06T11:52:30.699Z,53.27
2023-04-06T11:57:25.632Z,57.41
2023-04-06T12:02:19.077Z,51.42
2023-04-06T12:07:14.500Z,45.14
2023-04-06T12:12:09.478Z,43.60
2023-04-06T12:17:02.859Z,43.52
2023-04-06T12:21:56.301Z,43.32
2023-04-06T12:26:51.682Z,41.68
2023-04-06T12:31:50.159Z,43.42
2023-04-06T12:36:45.014Z,43.36
2023-04-06T12:41:38.338Z,44.09
2023-04-06T12:46:33.021Z,46.08
2023-04-06T12:51:30.846Z,44.45
2023-04-06T12:56:25.679Z,45.62
2023-04-06T13:01:19.355Z,44.05
2023-04-06T13:06:14.142Z,43.40
2023-04-06T13:11:10.107Z,43.73
2023-04-06T13:16:04.703Z,42.52
2023-04-06T13:20:58.122Z,42.64
2023-04-06T13:25:59.807Z,42.08
2023-04-06T13:30:55.933Z,36.99
2023-04-06T13:35:49.619Z,37.70
2023-04-06T13:40:43.303Z,36.59
2023-04-06T13:45:36.724Z,37.33
2023-04-06T13:50:33.951Z,37.87
2023-04-06T13:55:27.270Z,37.69
2023-04-06T14:00:23.025Z,38.07
2023-04-06T14:05:16.519Z,39.41
2023-04-06T14:10:15.068Z,41.32
2023-04-06T14:15:10.283Z,41.41
2023-04-06T14:20:06.155Z,42.58
2023-04-06T14:24:59.745Z,42.46
2023-04-06T14:29:54.817Z,42.41
2023-04-06T14:34:47.978Z,42.89
2023-04-06T14:39:43.297Z,42.09
2023-04-06T14:44:40.325Z,43.59
2023-04-06T14:49:34.961Z,43.17
2023-04-06T14:54:28.175Z,42.81
2023-04-06T14:59:21.486Z,43.33
2023-04-06T15:04:17.003Z,42.06
2023-04-06T15:09:11.738Z,42.76
2023-04-06T15:14:06.768Z,42.38
2023-04-06T15:19:04.440Z,42.23
2023-04-06T15:23:57.789Z,43.03
2023-04-06T15:28:56.675Z,43.09
2023-04-06T15:33:50.280Z,43.67
2023-04-06T15:38:43.666Z,44.72
2023-04-06T15:43:36.830Z,44.76
2023-04-06T15:48:32.833Z,45.10
2023-04-06T15:53:27.965Z,44.83
2023-04-06T15:58:21.173Z,45.91
2023-04-06T16:03:14.563Z,46.31
2023-04-06T16:08:09.525Z,46.91
2023-04-06T16:13:02.884Z,47.78
2023-04-06T16:17:59.335Z,47.54
2023-04-06T16:22:52.587Z,48.31
2023-04-06T16:27:47.316Z,48.96
2023-04-06T16:32:43.374Z,49.89
2023-04-06T16:37:36.777Z,49.66
2023-04-06T16:42:30.141Z,49.27
2023-04-06T16:47:25.272Z,49.13
2023-04-06T16:52:18.594Z,48.96
2023-04-06T16:57:13.067Z,48.83
2023-04-06T17:02:07.496Z,48.57
2023-04-06T17:07:02.268Z,48.84
2023-04-06T17:11:56.310Z,48.98
2023-04-06T17:16:49.622Z,49.67
2023-04-06T17:21:43.589Z,50.12
2023-04-06T17:26:38.220Z,50.24
2023-04-06T17:31:33.874Z,50.29
2023-04-06T17:36:33.180Z,50.46
2023-04-06T17:41:26.713Z,50.09
2023-04-06T17:46:21.782Z,50.28
2023-04-06T17:51:15.613Z,51.14
2023-04-06T17:56:08.799Z,51.23
2023-04-06T18:01:07.317Z,51.37
2023-04-06T18:06:12.467Z,51.77
2023-04-06T18:11:05.974Z,51.97
2023-04-06T18:16:02.091Z,51.38
2023-04-06T18:20:55.533Z,51.49
2023-04-06T18:25:50.248Z,51.23
2023-04-06T18:30:43.423Z,51.60
2023-04-06T18:35:38.057Z,51.23
2023-04-06T18:40:36.691Z,52.07
2023-04-06T18:45:38.981Z,51.88
2023-04-06T18:50:34.999Z,51.16
2023-04-06T18:55:33.682Z,51.60
2023-04-06T19:00:27.606Z,51.97
2023-04-06T19:05:25.689Z,52.21
2023-04-06T19:10:20.479Z,52.40
2023-04-06T19:15:17.613Z,52.67
2023-04-06T19:20:13.709Z,52.73
2023-04-06T19:25:09.822Z,53.28
2023-04-06T19:30:03.442Z,52.34
2023-04-06T19:34:56.773Z,52.77
2023-04-06T19:39:53.249Z,52.37
2023-04-06T19:44:47.793Z,52.67
2023-04-06T19:49:41.035Z,53.24
2023-04-06T19:54:35.902Z,53.37
2023-04-06T19:59:29.094Z,53.03
2023-04-06T20:04:25.109Z,52.96
2023-04-06T20:09:18.629Z,53.14
2023-04-06T20:14:13.009Z,53.09
2023-04-06T20:19:06.458Z,53.33
2023-04-06T20:24:01.510Z,53.60
2023-04-06T20:28:54.884Z,53.50
2023-04-06T20:33:48.572Z,53.51
2023-04-06T20:38:49.628Z,53.37
2023-04-06T20:43:45.366Z,52.56
2023-04-06T20:48:38.639Z,52.69
2023-04-06T20:53:34.190Z,51.57
2023-04-06T20:58:27.551Z,51.74
2023-04-06T21:03:22.354Z,51.59
2023-04-06T21:08:16.067Z,52.15
2023-04-06T21:13:15.877Z,50.76
2023-04-06T21:18:09.229Z,50.69
2023-04-06T21:23:07.111Z,50.38
2023-04-06T21:28:02.940Z,50.62
2023-04-06T21:33:02.432Z,50.34
2023-04-06T21:37:55.815Z,49.59
2023-04-06T21:42:53.036Z,49.41
2023-04-06T21:47:46.416Z,49.55
2023-04-06T21:52:39.720Z,49.12
2023-04-06T21:57:32.936Z,48.98
2023-04-06T22:02:29.074Z,48.90
2023-04-06T22:07:22.570Z,49.71
2023-04-06T22:12:16.082Z,49.58
2023-04-06T22:17:10.589Z,49.54
2023-04-06T22:22:05.436Z,49.07
2023-04-06T22:27:00.137Z,49.33
2023-04-06T22:31:53.375Z,49.07
2023-04-06T22:36:46.665Z,49.98
2023-04-06T22:41:41.289Z,50.40
2023-04-06T22:46:37.135Z,49.89
2023-04-06T22:51:30.517Z,49.47
2023-04-06T22:56:23.846Z,49.42
2023-04-06T23:01:18.897Z,49.56
2023-04-06T23:06:12.245Z,49.98
2023-04-06T23:11:05.524Z,51.15
2023-04-06T23:15:58.802Z,50.71
2023-04-06T23:20:58.048Z,50.43
2023-04-06T23:25:51.389Z,51.18
2023-04-06T23:30:44.608Z,50.64
2023-04-06T23:35:37.808Z,51.23
2023-04-06T23:40:33.576Z,51.51
2023-04-06T23:45:26.922Z,51.34
2023-04-06T23:50:20.256Z,51.31
2023-04-06T23:55:13.480Z,51.96
